• Join FlightAware (Why Join?)
  • Login
  • US Flag 
02:49AM EDT


 

Airport Tracker/Info


-or-


 

Live Flight TrackerFlight Track Log ✈ EJA929 ✈ 19-Nov-2013 ✈ KCMH - KLNK

Flight Track Log - Related Links

Times and Time Zones

All times are in EST time to prevent confusion due to time zone crossing. See the EJA929 flight status page for this flight to view local times or setup timezone preferences in your user account.

Time Position Orientation Groundspeed Altitude Reporting Facility
EST Latitude Longitude Course Direction KTS MPH feet Rate Location/Type
12:31PM 39.9925 -82.8783 98° East 165 190 1,500  Level Indianapolis Center
12:31PM 39.9856 -82.8136 98° East 232 267 4,100 3,960 Climbing Indianapolis Center
12:32PM 39.9764 -82.7222 97° East 249 287 8,900 2,820 Climbing Indianapolis Center
12:34PM 40.0447 -82.6664 32° Northeast 344 396 10,000 1,740 Climbing Indianapolis Center
12:35PM 40.0944 -82.7733 301° West 362 417 12,500 900 Climbing Indianapolis Center
12:36PM 40.1097 -82.8928 280° West 337 388 11,900 1,140 Descending Indianapolis Center
12:37PM 40.1344 -83.0242 284° West 368 423 14,900 3,000 Climbing Indianapolis Center
12:38PM 40.1681 -83.1858 285° West 388 447 18,200 2,700 Climbing Indianapolis Center
12:39PM 40.1947 -83.3175 285° West 380 437 20,500 1,680 Climbing Indianapolis Center
12:40PM 40.2206 -83.4514 284° West 384 442 21,700 1,140 Climbing Indianapolis Center
12:41PM 40.2486 -83.5919 285° West 400 460 22,900 1,140 Climbing Indianapolis Center
12:42PM 40.2775 -83.7375 285° West 412 474 24,100 1,200 Climbing Indianapolis Center
12:43PM 40.3114 -83.9169 284° West 424 488 25,500 1,200 Climbing Indianapolis Center
12:44PM 40.3414 -84.0706 284° West 435 501 26,700 1,140 Climbing Indianapolis Center
12:45PM 40.3706 -84.2256 284° West 440 506 27,900 1,080 Climbing Indianapolis Center
12:46PM 40.4000 -84.3828 284° West 446 513 29,000 960 Climbing Indianapolis Center
12:47PM 40.4308 -84.5425 284° West 452 520 29,900 960 Climbing Indianapolis Center
12:48PM 40.4664 -84.7378 284° West 459 528 31,000 1,020 Climbing Indianapolis Center
12:49PM 40.4981 -84.9056 284° West 461 531 32,100 960 Climbing Indianapolis Center
12:50PM 40.5281 -85.0664 284° West 457 526 33,100 1,020 Climbing Indianapolis Center
12:51PM 40.5564 -85.2247 283° West 452 520 34,200 1,020 Climbing Chicago Center
12:52PM 40.5850 -85.3856 283° West 453 521 35,300 1,020 Climbing Chicago Center
12:53PM 40.6128 -85.5428 283° West 447 514 36,400 1,020 Climbing Chicago Center
12:54PM 40.6411 -85.7003 283° West 446 513 37,500 1,140 Climbing Chicago Center
12:55PM 40.6739 -85.8864 283° West 440 506 38,800 1,140 Climbing Chicago Center
12:56PM 40.7008 -86.0394 283° West 434 499 39,900 480 Climbing Chicago Center
12:57PM 40.7278 -86.1939 283° West 435 501 39,900 300 Level Chicago Center
12:58PM 40.7544 -86.3514 283° West 442 509 40,600 900 Climbing Chicago Center
12:59PM 40.7839 -86.5347 282° West 434 499 41,800 1,020 Climbing Chicago Center
01:00PM 40.8092 -86.6875 282° West 430 495 42,800 960 Climbing Chicago Center
01:01PM 40.8353 -86.8364 283° West 424 488 43,800 960 Climbing Chicago Center
01:02PM 40.8606 -86.9831 283° West 418 481 44,800 540 Climbing Chicago Center
01:03PM 40.8842 -87.1286 282° West 412 474 45,000  Climbing Chicago Center
01:04PM 40.9092 -87.2803 282° West 416 479 44,900  Descending Chicago Center
01:06PM 40.9383 -87.4658 282° West 424 488 45,000  Climbing Chicago Center
01:07PM 40.9633 -87.6214 282° West 430 495 45,000 -60 Level Chicago Center
01:08PM 40.9753 -87.7786 276° West 431 496 44,900 -60 Descending Chicago Center
01:09PM 40.9778 -87.9367 271° West 429 494 44,900  Level Chicago Center
01:10PM 40.9822 -88.0958 272° West 431 496 44,900  Level Chicago Center
01:11PM 40.9853 -88.2544 272° West 432 497 44,900  Level Chicago Center
01:12PM 40.9881 -88.4136 271° West 432 497 44,900  Level Chicago Center
01:13PM 40.9922 -88.6000 272° West 431 496 44,900  Level Chicago Center
01:14PM 40.9947 -88.7633 271° West 432 497 44,900  Level Chicago Center
01:15PM 40.9972 -88.9186 271° West 435 501 44,900  Level Chicago Center
01:16PM 40.9994 -89.0761 271° West 431 496 45,000  Climbing Chicago Center
01:17PM 41.0011 -89.2347 271° West 432 497 44,900 -60 Descending Chicago Center
01:18PM 41.0033 -89.4247 271° West 432 497 44,900  Level Chicago Center
01:19PM 41.0047 -89.5839 271° West 435 501 45,000  Climbing Chicago Center
01:20PM 41.0069 -89.7428 271° West 437 503 44,900  Descending Chicago Center
01:21PM 41.0089 -89.9022 271° West 439 505 45,000  Climbing Chicago Center
01:22PM 41.0086 -90.0611 270° West 438 504 44,900 -60 Descending Chicago Center
01:23PM 41.0103 -90.2536 271° West 440 506 44,900  Level Chicago Center
01:24PM 41.0092 -90.4169 270° West 445 512 44,900  Level Chicago Center
01:25PM 41.0092 -90.5772 270° West 439 505 45,000  Climbing Chicago Center
01:26PM 41.0097 -90.7383 270° West 439 505 45,000 -60 Level Chicago Center
01:27PM 41.0094 -90.8997 270° West 439 505 44,900 -60 Descending Chicago Center
01:28PM 41.0089 -91.0617 270° West 440 506 44,900  Level Chicago Center
01:29PM 41.0083 -91.2572 270° West 442 509 44,900  Level Chicago Center
01:30PM 41.0069 -91.4189 269° West 441 507 44,900  Level Chicago Center
01:31PM 41.0067 -91.5803 270° West 439 505 45,000  Climbing Chicago Center
01:32PM 41.0056 -91.7475 270° West 441 507 45,000 -60 Level Chicago Center
01:33PM 41.0042 -91.9078 269° West 441 507 44,900 -60 Descending Chicago Center
01:34PM 41.0017 -92.0681 269° West 439 505 44,900  Level Chicago Center
01:35PM 40.9994 -92.2269 269° West 439 505 45,000  Climbing Chicago Center
01:36PM 40.9964 -92.4197 269° West 441 507 45,000  Level Chicago Center
01:38PM 40.9942 -92.5783 269° West 439 505 45,000 -60 Level Chicago Center
01:39PM 40.9914 -92.7378 269° West 440 506 44,900 -60 Descending Chicago Center
01:40PM 40.9883 -92.8956 269° West 436 502 44,900  Level Chicago Center
01:41PM 40.9844 -93.0864 269° West 438 504 45,000  Climbing Chicago Center
01:42PM 40.9819 -93.2464 269° West 439 505 44,900 -60 Descending Chicago Center
01:43PM 40.9775 -93.4053 268° West 438 504 44,900  Level Chicago Center
01:44PM 40.9742 -93.5636 268° West 438 504 45,000  Climbing Minneapolis Center
01:45PM 40.9703 -93.7242 268° West 441 507 44,900 -720 Descending Minneapolis Center
01:46PM 40.9661 -93.8833 268° West 438 504 43,600 -1,500 Descending Minneapolis Center
01:47PM 40.9608 -94.0800 268° West 446 513 41,900 -1,500 Descending Minneapolis Center
01:48PM 40.9558 -94.2453 268° West 451 519 40,500 -1,380 Descending Minneapolis Center
01:49PM 40.9497 -94.4100 267° West 452 520 39,100 -1,320 Descending Minneapolis Center
01:50PM 40.9456 -94.5672 268° West 452 520 37,800 -1,500 Descending Minneapolis Center
01:51PM 40.9372 -94.7714 267° West 459 528 36,100 -1,500 Descending Minneapolis Center
01:52PM 40.9314 -94.9408 267° West 461 531 34,700 -1,620 Descending Minneapolis Center
01:53PM 40.9250 -95.1114 267° West 461 531 32,800 -1,920 Descending Minneapolis Center
01:54PM 40.9186 -95.2836 267° West 464 534 30,800 -2,100 Descending Minneapolis Center
01:55PM 40.9186 -95.4056 270° West 475 547 29,300 -2,160 Descending Minneapolis Center
01:55PM 40.9119 -95.4572 260° West 467 537 28,600 -2,460 Descending Minneapolis Center
01:56PM 40.9069 -95.6306 268° West 467 537 26,100 -2,340 Descending Minneapolis Center
01:56PM 40.9044 -95.6317 199° South 471 542 26,200 -2,400 Climbing Minneapolis Center
01:57PM 40.8972 -95.7944 267° West 446 513 23,700 -2,340 Descending Minneapolis Center
01:57PM 40.8969 -95.7975 263° West 459 528 23,800 -2,400 Climbing Minneapolis Center
01:58PM 40.8869 -95.9556 265° West 436 502 21,300 -2,460 Descending Minneapolis Center
01:58PM 40.8894 -95.9581 323° Northwest 443 510 21,300 -3,240 Level Minneapolis Center
01:59PM 40.8792 -96.1244 265° West 431 496 18,100 -2,820 Descending Minneapolis Center
01:59PM 40.8817 -96.1153 70° East 432 497 18,400 -3,360 Climbing Minneapolis Center
02:00PM 40.8825 -96.2731 270° West 383 441 14,700 -4,020 Descending Minneapolis Center
02:00PM 40.8889 -96.2947 291° West 404 465 14,300 -3,180 Descending Minneapolis Center
02:01PM 40.8931 -96.4097 273° West 360 414 11,500 -3,000 Descending Minneapolis Center
02:01PM 40.9025 -96.4286 303° West 383 441 11,200 -2,220 Descending Minneapolis Center
02:02PM 40.9056 -96.5131 273° West 290 334 9,500 -2,460 Descending Minneapolis Center
02:02PM 40.9167 -96.5386 300° West 338 389 8,700 -2,640 Descending Minneapolis Center
02:03PM 40.9206 -96.6217 274° West 249 287 6,400 -2,280 Descending Minneapolis Center
02:03PM 40.9311 -96.6308 327° Northwest 285 328 6,400 -1,380 Level Minneapolis Center
02:04PM 40.9289 -96.6897 267° West 159 183 5,000 -1,500 Descending Minneapolis Center
02:04PM 40.9408 -96.7006 326° Northwest 237 273 4,900 -2,640 Descending Minneapolis Center
02:05PM 40.9022 -96.7339 213° Southwest 164 189 2,600 -2,460 Descending Minneapolis Center
02:05PM 40.9100 -96.7425 320° Northwest 188 216 2,400 -1,020 Descending Minneapolis Center
02:06PM 40.8675 -96.7458 183° South 107 123 1,600 -720 Descending Minneapolis Center
02:06PM 40.8725 -96.7558 303° West 160 184 1,700 360 Climbing Minneapolis Center